createdAt,value
2022-10-23T00:01:26.525Z,11.92
2022-10-23T00:04:01.775Z,11.93
2022-10-23T00:06:29.691Z,11.87
2022-10-23T00:08:56.472Z,11.87
2022-10-23T00:11:25.395Z,11.85
2022-10-23T00:13:54.519Z,11.87
2022-10-23T00:16:21.187Z,11.89
2022-10-23T00:18:47.825Z,11.87
2022-10-23T00:21:15.875Z,11.90
2022-10-23T00:23:42.731Z,11.89
2022-10-23T00:26:11.348Z,11.92
2022-10-23T00:28:38.270Z,11.89
2022-10-23T00:31:05.688Z,11.89
2022-10-23T00:33:33.078Z,11.88
2022-10-23T00:35:59.987Z,11.84
2022-10-23T00:38:26.470Z,11.82
2022-10-23T00:40:52.913Z,11.79
2022-10-23T00:43:26.581Z,11.79
2022-10-23T00:45:53.569Z,11.83
2022-10-23T00:48:20.465Z,11.82
2022-10-23T00:50:49.240Z,11.86
2022-10-23T00:53:18.339Z,11.80
2022-10-23T00:55:47.123Z,11.82
2022-10-23T00:58:15.091Z,11.85
2022-10-23T01:00:48.577Z,11.90
2022-10-23T01:03:17.795Z,11.93
2022-10-23T01:06:06.989Z,11.94
2022-10-23T01:08:42.558Z,11.99
2022-10-23T01:11:28.907Z,11.99
2022-10-23T01:16:52.439Z,12.00
2022-10-23T01:19:46.387Z,12.04
2022-10-23T01:22:30.827Z,12.04
2022-10-23T01:25:34.401Z,12.03
2022-10-23T01:28:05.367Z,12.04
2022-10-23T01:30:34.094Z,12.03
2022-10-23T01:33:08.159Z,12.04
2022-10-23T01:35:40.960Z,12.05
2022-10-23T01:38:35.730Z,12.06
2022-10-23T01:41:17.832Z,12.11
2022-10-23T01:43:51.672Z,12.13
2022-10-23T01:46:18.454Z,12.11
2022-10-23T01:48:56.101Z,12.12
2022-10-23T01:51:26.979Z,12.14
2022-10-23T01:53:57.391Z,12.20
2022-10-23T01:56:28.757Z,12.23
2022-10-23T01:58:58.290Z,12.22
2022-10-23T02:01:27.953Z,12.24
2022-10-23T02:04:00.315Z,12.23
2022-10-23T02:06:26.846Z,12.24
2022-10-23T02:08:53.271Z,12.25
2022-10-23T02:11:21.780Z,12.25
2022-10-23T02:13:59.792Z,12.30
2022-10-23T02:16:37.348Z,12.34
2022-10-23T02:19:30.006Z,12.36
2022-10-23T02:22:06.543Z,12.35
2022-10-23T02:24:36.201Z,12.33
2022-10-23T02:27:10.236Z,12.34
2022-10-23T02:29:42.785Z,12.37
2022-10-23T02:32:11.263Z,12.34
2022-10-23T02:34:37.957Z,12.31
2022-10-23T02:37:04.586Z,12.29
2022-10-23T02:39:31.100Z,12.30
2022-10-23T02:42:09.259Z,12.30
2022-10-23T02:45:00.158Z,12.30
2022-10-23T02:47:47.013Z,12.31
2022-10-23T02:50:22.089Z,12.32
2022-10-23T02:53:13.398Z,12.35
2022-10-23T02:56:11.085Z,12.35
2022-10-23T02:58:42.176Z,12.33
2022-10-23T03:01:14.977Z,12.30
2022-10-23T03:04:03.024Z,12.30
2022-10-23T03:06:29.420Z,12.32
2022-10-23T03:09:04.838Z,12.34
2022-10-23T03:11:31.279Z,12.34
2022-10-23T03:13:57.733Z,12.33
2022-10-23T03:16:24.882Z,12.34
2022-10-23T03:18:51.405Z,12.37
2022-10-23T03:21:17.867Z,12.37
2022-10-23T03:23:44.325Z,12.36
2022-10-23T03:26:10.822Z,12.35
2022-10-23T03:28:37.307Z,12.35
2022-10-23T03:31:04.030Z,12.35
2022-10-23T03:33:31.648Z,12.34
2022-10-23T03:35:58.073Z,12.32
2022-10-23T03:38:24.510Z,12.31
2022-10-23T03:40:51.038Z,12.29
2022-10-23T03:43:17.466Z,12.27
2022-10-23T03:45:43.915Z,12.23
2022-10-23T03:48:10.770Z,12.22
2022-10-23T03:50:37.227Z,12.19
2022-10-23T03:53:03.719Z,12.15
2022-10-23T03:55:34.453Z,12.14
2022-10-23T03:58:00.863Z,12.16
2022-10-23T04:00:27.451Z,12.17
2022-10-23T04:02:53.930Z,12.15
2022-10-23T04:05:20.314Z,12.20
2022-10-23T04:07:46.723Z,12.22
2022-10-23T04:10:13.107Z,12.19
2022-10-23T04:12:39.715Z,12.16
2022-10-23T04:15:06.709Z,12.19
2022-10-23T04:17:33.149Z,12.19
2022-10-23T04:19:59.561Z,12.21
2022-10-23T04:22:28.303Z,12.20
2022-10-23T04:24:55.253Z,12.16
2022-10-23T04:27:21.726Z,12.15
2022-10-23T04:29:49.105Z,12.14
2022-10-23T04:32:15.519Z,12.15
2022-10-23T04:34:41.906Z,12.13
2022-10-23T04:37:08.322Z,12.14
2022-10-23T04:39:34.746Z,12.14
2022-10-23T04:42:01.172Z,12.15
2022-10-23T04:44:27.626Z,12.16
2022-10-23T04:46:54.122Z,12.17
2022-10-23T04:49:20.580Z,12.19
2022-10-23T04:51:46.984Z,12.20
2022-10-23T04:54:13.485Z,12.19
2022-10-23T04:56:39.906Z,12.18
2022-10-23T05:01:37.926Z,12.14
2022-10-23T05:04:04.836Z,12.15
2022-10-23T05:06:31.248Z,12.15
2022-10-23T05:08:57.658Z,12.14
2022-10-23T05:11:24.080Z,12.11
2022-10-23T05:13:50.547Z,12.10
2022-10-23T05:16:46.527Z,12.08
2022-10-23T05:19:21.979Z,12.10
2022-10-23T05:21:55.754Z,12.10
2022-10-23T05:24:23.807Z,12.11
2022-10-23T05:26:52.787Z,12.12
2022-10-23T05:29:20.400Z,12.13
2022-10-23T05:31:48.906Z,12.13
2022-10-23T05:34:19.982Z,12.14
2022-10-23T05:36:47.169Z,12.15
2022-10-23T05:39:13.724Z,12.19
2022-10-23T05:41:40.136Z,12.19
2022-10-23T05:44:06.507Z,12.16
2022-10-23T05:46:32.916Z,12.15
2022-10-23T05:51:30.625Z,12.19
2022-10-23T05:53:57.054Z,12.18
2022-10-23T05:56:23.464Z,12.18
2022-10-23T05:58:49.837Z,12.22
2022-10-23T06:01:17.992Z,12.22
2022-10-23T06:03:44.955Z,12.24
2022-10-23T06:06:11.466Z,12.24
2022-10-23T06:08:37.886Z,12.23
2022-10-23T06:11:13.452Z,12.24
2022-10-23T06:13:42.158Z,12.25
2022-10-23T06:16:14.291Z,12.26
2022-10-23T06:18:41.100Z,12.28
2022-10-23T06:21:08.862Z,12.28
2022-10-23T06:23:37.011Z,12.29
2022-10-23T06:26:04.503Z,12.29
2022-10-23T06:28:31.040Z,12.32
2022-10-23T06:30:57.447Z,12.33
2022-10-23T06:33:23.953Z,12.34
2022-10-23T06:35:50.364Z,12.35
2022-10-23T06:38:16.834Z,12.35
2022-10-23T06:40:45.523Z,12.37
2022-10-23T06:43:11.910Z,12.38
2022-10-23T06:45:38.304Z,12.40
2022-10-23T06:48:05.054Z,12.42
2022-10-23T06:50:31.458Z,12.44
2022-10-23T06:52:57.951Z,12.47
2022-10-23T06:55:24.570Z,12.49
2022-10-23T06:57:51.050Z,12.50
2022-10-23T07:00:17.820Z,12.53
2022-10-23T07:02:45.173Z,12.56
2022-10-23T07:05:13.664Z,12.57
2022-10-23T07:07:40.584Z,12.61
2022-10-23T07:10:07.437Z,12.62
2022-10-23T07:12:33.949Z,12.66
2022-10-23T07:15:00.345Z,12.72
2022-10-23T07:17:28.992Z,12.74
2022-10-23T07:19:55.402Z,12.79
2022-10-23T07:22:21.780Z,12.85
2022-10-23T07:24:48.186Z,12.88
2022-10-23T07:27:14.643Z,12.93
2022-10-23T07:29:42.026Z,13.02
2022-10-23T07:32:09.269Z,13.06
2022-10-23T07:34:36.875Z,13.15
2022-10-23T07:37:03.430Z,13.19
2022-10-23T07:39:29.907Z,13.27
2022-10-23T07:41:56.341Z,13.32
2022-10-23T07:44:25.628Z,13.41
2022-10-23T07:46:54.116Z,13.44
2022-10-23T07:49:20.572Z,13.45
2022-10-23T07:51:50.531Z,13.50
2022-10-23T07:54:18.573Z,13.60
2022-10-23T07:56:45.123Z,13.63
2022-10-23T07:59:14.660Z,13.69
2022-10-23T08:01:47.100Z,13.74
2022-10-23T08:04:14.187Z,13.85
2022-10-23T08:06:40.624Z,13.94
2022-10-23T08:09:07.259Z,14.02
2022-10-23T08:11:35.596Z,14.09
2022-10-23T08:14:04.611Z,14.15
2022-10-23T08:16:34.272Z,14.21
2022-10-23T08:19:01.794Z,14.29
2022-10-23T08:21:28.733Z,14.40
2022-10-23T08:24:00.082Z,14.54
2022-10-23T08:26:29.410Z,14.62
2022-10-23T08:28:56.361Z,14.69
2022-10-23T08:31:23.238Z,14.75
2022-10-23T08:36:28.488Z,14.91
2022-10-23T08:38:56.522Z,14.94
2022-10-23T08:41:44.098Z,14.98
2022-10-23T08:44:34.173Z,15.04
2022-10-23T08:47:15.512Z,15.09
2022-10-23T08:49:50.964Z,15.04
2022-10-23T08:52:27.531Z,15.19
2022-10-23T08:55:00.489Z,15.17
2022-10-23T08:57:37.741Z,15.13
2022-10-23T09:00:20.491Z,15.20
2022-10-23T09:02:50.806Z,15.31
2022-10-23T09:05:55.705Z,15.39
2022-10-23T09:08:43.363Z,15.50
2022-10-23T09:11:54.887Z,15.50
2022-10-23T09:14:49.277Z,15.50
2022-10-23T09:17:26.918Z,15.52
2022-10-23T09:20:05.230Z,15.63
2022-10-23T09:22:31.742Z,15.66
2022-10-23T09:24:58.133Z,15.72
2022-10-23T09:27:24.661Z,15.71
2022-10-23T09:29:54.368Z,15.75
2022-10-23T09:32:32.972Z,15.74
2022-10-23T09:34:59.421Z,15.71
2022-10-23T09:37:29.456Z,15.74
2022-10-23T09:40:21.508Z,15.77
2022-10-23T09:43:00.105Z,15.82
2022-10-23T09:45:34.995Z,15.95
2022-10-23T09:48:09.775Z,15.98
2022-10-23T09:50:36.335Z,16.08
2022-10-23T09:53:02.948Z,16.22
2022-10-23T09:55:29.751Z,16.29
2022-10-23T09:57:56.301Z,16.31
2022-10-23T10:00:27.627Z,16.36
2022-10-23T10:03:06.099Z,16.43
2022-10-23T10:05:42.130Z,16.36
2022-10-23T10:08:20.642Z,16.36
2022-10-23T10:10:51.687Z,16.40
2022-10-23T10:13:30.075Z,16.55
2022-10-23T10:16:23.681Z,16.49
2022-10-23T10:19:05.979Z,16.52
2022-10-23T10:22:08.841Z,16.54
2022-10-23T10:24:52.446Z,16.57
2022-10-23T10:27:25.020Z,16.55
2022-10-23T10:30:15.813Z,16.64
2022-10-23T10:32:58.000Z,16.74
2022-10-23T10:35:55.460Z,16.64
2022-10-23T10:38:58.686Z,16.66
2022-10-23T10:41:28.111Z,16.71
2022-10-23T10:44:03.243Z,16.78
2022-10-23T10:47:25.588Z,16.79
2022-10-23T10:50:03.019Z,16.76
2022-10-23T10:53:17.985Z,16.83
2022-10-23T10:55:49.190Z,16.83
2022-10-23T10:58:43.872Z,16.82
2022-10-23T11:01:16.513Z,16.89
2022-10-23T11:03:51.849Z,16.94
2022-10-23T11:06:22.642Z,17.07
2022-10-23T11:08:57.442Z,17.05
2022-10-23T11:11:37.819Z,17.07
2022-10-23T11:14:04.473Z,17.00
2022-10-23T11:16:37.110Z,16.99
2022-10-23T11:19:11.451Z,17.01
2022-10-23T11:22:05.373Z,16.98
2022-10-23T11:24:49.099Z,16.98
2022-10-23T11:27:47.409Z,17.00
2022-10-23T11:30:22.784Z,16.94
2022-10-23T11:33:08.051Z,16.97
2022-10-23T11:36:04.258Z,16.93
2022-10-23T11:38:34.802Z,16.92
2022-10-23T11:41:04.762Z,16.81
2022-10-23T11:43:47.347Z,16.82
2022-10-23T11:46:25.380Z,16.78
2022-10-23T11:48:53.711Z,16.76
2022-10-23T11:51:27.568Z,16.85
2022-10-23T11:54:22.347Z,16.85
2022-10-23T11:56:54.750Z,16.88
2022-10-23T11:59:27.855Z,16.92
2022-10-23T12:01:56.769Z,17.11
2022-10-23T12:04:41.099Z,17.18
2022-10-23T12:07:32.914Z,17.27
2022-10-23T12:10:03.033Z,17.39
2022-10-23T12:12:43.128Z,17.38
2022-10-23T12:15:15.371Z,17.36
2022-10-23T12:17:43.837Z,17.44
2022-10-23T12:20:10.612Z,17.51
2022-10-23T12:23:05.239Z,17.64
2022-10-23T12:26:08.730Z,17.59
2022-10-23T12:28:45.774Z,17.67
2022-10-23T12:31:38.419Z,17.63
2022-10-23T12:34:23.099Z,17.62
2022-10-23T12:37:18.987Z,17.71
2022-10-23T12:39:52.946Z,17.76
2022-10-23T12:42:24.969Z,17.82
2022-10-23T12:45:12.803Z,17.86
2022-10-23T12:47:40.059Z,17.82
2022-10-23T12:50:35.853Z,17.76
2022-10-23T12:53:06.651Z,17.76
2022-10-23T12:55:55.627Z,17.83
2022-10-23T12:58:25.329Z,17.84
2022-10-23T13:00:57.031Z,17.82
2022-10-23T13:03:25.945Z,17.84
2022-10-23T13:05:54.629Z,17.82
2022-10-23T13:08:23.081Z,17.80
2022-10-23T13:10:50.400Z,17.79
2022-10-23T13:13:24.076Z,17.75
2022-10-23T13:15:50.887Z,17.72
2022-10-23T13:18:18.059Z,17.68
2022-10-23T13:20:58.341Z,17.64
2022-10-23T13:23:34.768Z,17.60
2022-10-23T13:26:07.240Z,17.53
2022-10-23T13:28:41.630Z,17.52
2022-10-23T13:31:24.229Z,17.55
2022-10-23T13:34:17.288Z,17.55
2022-10-23T13:36:53.710Z,17.53
2022-10-23T13:39:26.061Z,17.51
2022-10-23T13:41:52.564Z,17.52
2022-10-23T13:44:22.041Z,17.50
2022-10-23T13:46:48.724Z,17.50
2022-10-23T13:49:15.986Z,17.45
2022-10-23T13:51:49.879Z,17.46
2022-10-23T13:54:19.815Z,17.44
2022-10-23T13:56:46.794Z,17.42
2022-10-23T13:59:14.312Z,17.45
2022-10-23T14:01:41.716Z,17.45
2022-10-23T14:04:08.703Z,17.43
2022-10-23T14:06:37.451Z,17.44
2022-10-23T14:09:08.861Z,17.46
2022-10-23T14:11:35.356Z,17.42
2022-10-23T14:14:02.091Z,17.47
2022-10-23T14:16:28.803Z,17.41
2022-10-23T14:18:55.439Z,17.37
2022-10-23T14:21:23.553Z,17.32
2022-10-23T14:23:51.605Z,17.35
2022-10-23T14:26:21.514Z,17.43
2022-10-23T14:28:48.431Z,17.36
2022-10-23T14:31:17.552Z,17.40
2022-10-23T14:33:45.018Z,17.38
2022-10-23T14:36:12.574Z,17.38
2022-10-23T14:38:39.199Z,17.35
2022-10-23T14:41:13.853Z,17.38
2022-10-23T14:43:40.345Z,17.34
2022-10-23T14:46:15.250Z,17.27
2022-10-23T14:48:45.483Z,17.30
2022-10-23T14:51:25.819Z,17.23
2022-10-23T14:53:59.754Z,17.24
2022-10-23T14:56:26.429Z,17.29
2022-10-23T14:58:52.942Z,17.24
2022-10-23T15:01:19.596Z,17.20
2022-10-23T15:03:46.207Z,17.16
2022-10-23T15:06:17.515Z,17.15
2022-10-23T15:08:44.819Z,17.13
2022-10-23T15:11:12.704Z,17.14
2022-10-23T15:13:39.353Z,17.08
2022-10-23T15:16:09.836Z,17.00
2022-10-23T15:21:09.558Z,16.79
2022-10-23T15:23:39.949Z,16.74
2022-10-23T15:26:14.309Z,16.68
2022-10-23T15:28:40.713Z,16.70
2022-10-23T15:31:29.180Z,16.64
2022-10-23T15:33:59.459Z,16.54
2022-10-23T15:36:26.356Z,16.48
2022-10-23T15:38:52.891Z,16.45
2022-10-23T15:41:39.325Z,16.41
2022-10-23T15:44:06.917Z,16.37
2022-10-23T15:46:33.992Z,16.34
2022-10-23T15:49:00.734Z,16.30
2022-10-23T15:51:27.596Z,16.23
2022-10-23T15:53:54.231Z,16.22
2022-10-23T15:56:20.640Z,16.19
2022-10-23T15:58:47.051Z,16.15
2022-10-23T16:01:13.606Z,16.17
2022-10-23T16:03:40.122Z,16.22
2022-10-23T16:06:09.586Z,16.17
2022-10-23T16:08:36.311Z,16.15
2022-10-23T16:11:03.662Z,16.10
2022-10-23T16:13:30.321Z,16.05
2022-10-23T16:15:56.734Z,16.01
2022-10-23T16:18:23.269Z,16.00
2022-10-23T16:20:55.496Z,15.96
2022-10-23T16:23:22.235Z,15.95
2022-10-23T16:25:48.676Z,15.95
2022-10-23T16:28:15.129Z,15.92
2022-10-23T16:30:43.282Z,15.87
2022-10-23T16:33:10.009Z,15.82
2022-10-23T16:35:36.951Z,15.82
2022-10-23T16:38:03.743Z,15.81
2022-10-23T16:40:30.233Z,15.77
2022-10-23T16:42:58.013Z,15.78
2022-10-23T16:45:24.441Z,15.79
2022-10-23T16:47:50.896Z,15.76
2022-10-23T16:50:17.766Z,15.75
2022-10-23T16:52:44.475Z,15.73
2022-10-23T16:55:11.120Z,15.72
2022-10-23T16:57:37.768Z,15.73
2022-10-23T17:00:06.017Z,15.74
2022-10-23T17:02:32.878Z,15.71
2022-10-23T17:04:59.725Z,15.69
2022-10-23T17:07:26.187Z,15.66
2022-10-23T17:09:52.606Z,15.63
2022-10-23T17:12:19.042Z,15.63
2022-10-23T17:14:45.420Z,15.64
2022-10-23T17:17:12.012Z,15.65
2022-10-23T17:19:45.673Z,15.64
2022-10-23T17:22:13.795Z,15.63
2022-10-23T17:24:41.875Z,15.62
2022-10-23T17:27:08.759Z,15.63
2022-10-23T17:29:35.335Z,15.62
2022-10-23T17:32:01.891Z,15.60
2022-10-23T17:34:28.383Z,15.57
2022-10-23T17:36:56.048Z,15.56
2022-10-23T17:39:25.928Z,15.55
2022-10-23T17:41:53.188Z,15.56
2022-10-23T17:44:20.006Z,15.58
2022-10-23T17:46:46.480Z,15.55
2022-10-23T17:49:12.953Z,15.57
2022-10-23T17:51:39.948Z,15.59
2022-10-23T17:54:08.992Z,15.57
2022-10-23T17:56:37.620Z,15.55
2022-10-23T17:59:14.425Z,15.53
2022-10-23T18:01:43.575Z,15.53
2022-10-23T18:04:10.412Z,15.52
2022-10-23T18:06:42.314Z,15.53
2022-10-23T18:09:08.974Z,15.52
2022-10-23T18:11:40.645Z,15.52
2022-10-23T18:14:10.504Z,15.51
2022-10-23T18:16:39.561Z,15.52
2022-10-23T18:19:06.339Z,15.50
2022-10-23T18:21:32.767Z,15.49
2022-10-23T18:24:00.209Z,15.50
2022-10-23T18:26:30.055Z,15.48
2022-10-23T18:28:59.051Z,15.46
2022-10-23T18:31:27.633Z,15.47
2022-10-23T18:33:59.621Z,15.44
2022-10-23T18:36:29.485Z,15.44
2022-10-23T18:38:56.367Z,15.41
2022-10-23T18:41:23.720Z,15.43
2022-10-23T18:43:51.668Z,15.42
2022-10-23T18:46:19.293Z,15.41
2022-10-23T18:48:47.373Z,15.41
2022-10-23T18:51:19.879Z,15.40
2022-10-23T18:53:47.096Z,15.37
2022-10-23T18:56:14.908Z,15.34
2022-10-23T18:58:41.605Z,15.33
2022-10-23T19:01:08.198Z,15.33
2022-10-23T19:03:34.716Z,15.31
2022-10-23T19:06:01.235Z,15.30
2022-10-23T19:08:28.826Z,15.29
2022-10-23T19:10:57.387Z,15.28
2022-10-23T19:13:23.861Z,15.28
2022-10-23T19:15:50.301Z,15.26
2022-10-23T19:18:16.940Z,15.28
2022-10-23T19:20:44.062Z,15.29
2022-10-23T19:23:12.811Z,15.28
2022-10-23T19:25:45.248Z,15.24
2022-10-23T19:28:11.713Z,15.23
2022-10-23T19:30:38.198Z,15.19
2022-10-23T19:33:04.774Z,15.17
2022-10-23T19:35:31.224Z,15.15
2022-10-23T19:37:57.618Z,15.11
2022-10-23T19:40:24.268Z,15.12
2022-10-23T19:42:50.922Z,15.07
2022-10-23T19:45:17.718Z,15.05
2022-10-23T19:47:46.101Z,15.04
2022-10-23T19:50:12.895Z,14.99
2022-10-23T19:52:39.427Z,14.96
2022-10-23T19:55:06.688Z,14.96
2022-10-23T19:57:37.012Z,14.98
2022-10-23T20:00:05.683Z,15.01
2022-10-23T20:05:08.720Z,14.98
2022-10-23T20:07:37.001Z,14.96
2022-10-23T20:10:06.108Z,14.94
2022-10-23T20:12:33.123Z,14.93
2022-10-23T20:15:00.040Z,14.96
2022-10-23T20:17:26.476Z,14.97
2022-10-23T20:19:52.911Z,14.98
2022-10-23T20:22:19.728Z,15.02
2022-10-23T20:24:46.122Z,15.05
2022-10-23T20:27:14.611Z,15.08
2022-10-23T20:29:42.414Z,15.09
2022-10-23T20:32:08.978Z,15.09
2022-10-23T20:34:35.460Z,15.10
2022-10-23T20:37:01.912Z,15.09
2022-10-23T20:39:29.706Z,15.09
2022-10-23T20:41:56.633Z,15.17
2022-10-23T20:44:23.523Z,15.18
2022-10-23T20:46:50.798Z,15.22
2022-10-23T20:49:18.597Z,15.24
2022-10-23T20:51:45.761Z,15.27
2022-10-23T20:54:12.222Z,15.24
2022-10-23T20:56:39.586Z,15.21
2022-10-23T20:59:10.105Z,15.16
2022-10-23T21:01:40.123Z,15.14
2022-10-23T21:04:06.703Z,15.10
2022-10-23T21:06:45.868Z,15.06
2022-10-23T21:09:18.515Z,15.05
2022-10-23T21:11:44.939Z,15.04
2022-10-23T21:14:11.708Z,15.03
2022-10-23T21:16:40.942Z,15.02
2022-10-23T21:19:10.311Z,14.98
2022-10-23T21:21:36.727Z,14.96
2022-10-23T21:24:07.666Z,14.92
2022-10-23T21:26:34.382Z,14.90
2022-10-23T21:29:17.383Z,14.86
2022-10-23T21:31:45.454Z,14.83
2022-10-23T21:34:12.101Z,14.80
2022-10-23T21:36:53.979Z,14.80
2022-10-23T21:39:25.331Z,14.76
2022-10-23T21:41:51.787Z,14.75
2022-10-23T21:44:18.281Z,14.76
2022-10-23T21:46:44.732Z,14.77
2022-10-23T21:49:11.750Z,14.75
2022-10-23T21:51:38.965Z,14.74
2022-10-23T21:54:07.051Z,14.72
2022-10-23T21:56:39.951Z,14.71
2022-10-23T21:59:12.356Z,14.70
2022-10-23T22:01:41.654Z,14.67
2022-10-23T22:04:09.724Z,14.66
2022-10-23T22:06:36.883Z,14.65
2022-10-23T22:09:04.219Z,14.63
2022-10-23T22:11:30.665Z,14.62
2022-10-23T22:13:59.205Z,14.62
2022-10-23T22:16:26.137Z,14.59
2022-10-23T22:18:52.839Z,14.61
2022-10-23T22:21:25.272Z,14.60
2022-10-23T22:23:54.636Z,14.58
2022-10-23T22:26:30.589Z,14.55
2022-10-23T22:29:00.107Z,14.54
2022-10-23T22:31:29.572Z,14.54
2022-10-23T22:33:57.094Z,14.57
2022-10-23T22:36:24.410Z,14.59
2022-10-23T22:38:51.286Z,14.59
2022-10-23T22:41:18.383Z,14.57
2022-10-23T22:43:45.002Z,14.56
2022-10-23T22:46:17.171Z,14.59
2022-10-23T22:48:44.854Z,14.60
2022-10-23T22:51:13.358Z,14.60
2022-10-23T22:53:39.813Z,14.60
2022-10-23T22:56:12.051Z,14.57
2022-10-23T22:58:38.675Z,14.55
2022-10-23T23:01:13.973Z,14.52
2022-10-23T23:03:41.230Z,14.56
2022-10-23T23:06:08.808Z,14.55
2022-10-23T23:08:36.896Z,14.53
2022-10-23T23:11:03.713Z,14.53
2022-10-23T23:13:30.351Z,14.55
2022-10-23T23:15:57.621Z,14.58
2022-10-23T23:18:24.537Z,14.59
2022-10-23T23:20:51.016Z,14.61
2022-10-23T23:23:18.210Z,14.62
2022-10-23T23:25:49.628Z,14.61
2022-10-23T23:28:18.891Z,14.62
2022-10-23T23:33:23.097Z,14.66
2022-10-23T23:35:49.575Z,14.67
2022-10-23T23:38:15.980Z,14.69
2022-10-23T23:40:51.295Z,14.71
2022-10-23T23:43:18.103Z,14.71
2022-10-23T23:45:44.599Z,14.71
2022-10-23T23:48:11.024Z,14.70
2022-10-23T23:50:37.948Z,14.68
2022-10-23T23:53:04.332Z,14.63
2022-10-23T23:55:30.845Z,14.64
2022-10-23T23:57:57.238Z,14.62
